Schouweiler, Luxembourg
Current Conditions -  °F | °C
As of 6:50 PM on Saturday 25 Oct 2014 (Local Time) from ELLX Reporting Station
Broken Clouds Broken Clouds  
Wind Chill: 54°   Ceiling: 1500
Heat Index: 54°   Visibility: 6mi
Dew Point: 52°   Wind: 2mph
Humidity: 94%   Direction: NA
Pressure: 30.15"   Gusts: NA
Location:  49.58°N, 5.96°E
Report Text: ELLX 251650Z VRB02KT 9999 BKN015 BKN070 12/11 Q1021 NOSIG
Loading
Personal Weather Stations






























Interactive Weather Map
Tropical Storm Tracking
New forecast layout! Learn more

10-Day Weather Forecast

Advertisements
Track Severe Weather on mobile